sensor_id;sensor_type;location;lat;lon;timestamp;P1;durP1;ratioP1;P2;durP2;ratioP2
63534;SDS011;55128;50.230;18.944;2024-02-21T00:03:07;12.70;;;5.00;;
63534;SDS011;55128;50.230;18.944;2024-02-21T00:08:07;18.65;;;7.80;;
63534;SDS011;55128;50.230;18.944;2024-02-21T00:13:08;13.50;;;6.53;;
63534;SDS011;55128;50.230;18.944;2024-02-21T00:18:08;15.13;;;7.10;;
63534;SDS011;55128;50.230;18.944;2024-02-21T00:23:10;15.10;;;7.90;;
63534;SDS011;55128;50.230;18.944;2024-02-21T00:28:11;17.77;;;7.93;;
63534;SDS011;55128;50.230;18.944;2024-02-21T00:33:12;14.48;;;6.63;;
63534;SDS011;55128;50.230;18.944;2024-02-21T00:38:13;14.43;;;7.32;;
63534;SDS011;55128;50.230;18.944;2024-02-21T00:43:13;12.50;;;6.85;;
63534;SDS011;55128;50.230;18.944;2024-02-21T00:48:14;15.68;;;7.30;;
63534;SDS011;55128;50.230;18.944;2024-02-21T00:53:14;12.57;;;7.47;;
63534;SDS011;55128;50.230;18.944;2024-02-21T00:58:15;17.45;;;8.38;;
63534;SDS011;55128;50.230;18.944;2024-02-21T01:03:15;14.40;;;7.30;;
63534;SDS011;55128;50.230;18.944;2024-02-21T01:08:16;13.20;;;7.75;;
63534;SDS011;55128;50.230;18.944;2024-02-21T01:13:16;15.10;;;7.10;;
63534;SDS011;55128;50.230;18.944;2024-02-21T01:18:16;18.23;;;8.90;;
63534;SDS011;55128;50.230;18.944;2024-02-21T01:23:17;15.90;;;7.78;;
63534;SDS011;55128;50.230;18.944;2024-02-21T01:28:18;18.23;;;8.32;;
63534;SDS011;55128;50.230;18.944;2024-02-21T01:33:18;21.30;;;9.15;;
63534;SDS011;55128;50.230;18.944;2024-02-21T01:38:19;19.95;;;9.05;;
63534;SDS011;55128;50.230;18.944;2024-02-21T01:43:19;17.27;;;8.95;;
63534;SDS011;55128;50.230;18.944;2024-02-21T01:48:21;15.68;;;8.45;;
63534;SDS011;55128;50.230;18.944;2024-02-21T01:53:30;17.48;;;8.23;;
63534;SDS011;55128;50.230;18.944;2024-02-21T01:58:36;13.50;;;6.63;;
63534;SDS011;55128;50.230;18.944;2024-02-21T02:03:39;17.93;;;6.43;;
63534;SDS011;55128;50.230;18.944;2024-02-21T02:08:39;14.57;;;6.30;;
63534;SDS011;55128;50.230;18.944;2024-02-21T02:13:40;17.92;;;6.53;;
63534;SDS011;55128;50.230;18.944;2024-02-21T02:18:40;12.15;;;5.72;;
63534;SDS011;55128;50.230;18.944;2024-02-21T02:23:41;12.30;;;5.72;;
63534;SDS011;55128;50.230;18.944;2024-02-21T02:28:42;13.82;;;5.82;;
63534;SDS011;55128;50.230;18.944;2024-02-21T02:33:43;11.65;;;5.72;;
63534;SDS011;55128;50.230;18.944;2024-02-21T02:38:44;14.65;;;6.53;;
63534;SDS011;55128;50.230;18.944;2024-02-21T02:43:45;13.88;;;6.18;;
63534;SDS011;55128;50.230;18.944;2024-02-21T02:48:45;14.95;;;6.13;;
63534;SDS011;55128;50.230;18.944;2024-02-21T02:53:46;11.63;;;5.13;;
63534;SDS011;55128;50.230;18.944;2024-02-21T02:58:46;15.35;;;6.38;;
63534;SDS011;55128;50.230;18.944;2024-02-21T03:03:46;16.63;;;6.32;;
63534;SDS011;55128;50.230;18.944;2024-02-21T03:08:47;16.35;;;7.07;;
63534;SDS011;55128;50.230;18.944;2024-02-21T03:13:48;19.67;;;8.55;;
63534;SDS011;55128;50.230;18.944;2024-02-21T03:18:49;16.77;;;8.38;;
63534;SDS011;55128;50.230;18.944;2024-02-21T03:23:49;19.98;;;8.95;;
63534;SDS011;55128;50.230;18.944;2024-02-21T03:28:50;16.08;;;8.95;;
63534;SDS011;55128;50.230;18.944;2024-02-21T03:33:50;17.20;;;8.20;;
63534;SDS011;55128;50.230;18.944;2024-02-21T03:38:50;19.30;;;9.13;;
63534;SDS011;55128;50.230;18.944;2024-02-21T03:43:51;18.00;;;8.60;;
63534;SDS011;55128;50.230;18.944;2024-02-21T03:48:51;16.30;;;8.40;;
63534;SDS011;55128;50.230;18.944;2024-02-21T03:53:52;18.55;;;8.65;;
63534;SDS011;55128;50.230;18.944;2024-02-21T03:58:52;17.77;;;9.75;;
63534;SDS011;55128;50.230;18.944;2024-02-21T04:03:53;21.73;;;9.93;;
63534;SDS011;55128;50.230;18.944;2024-02-21T04:08:53;19.00;;;9.60;;
63534;SDS011;55128;50.230;18.944;2024-02-21T04:13:53;19.92;;;9.88;;
63534;SDS011;55128;50.230;18.944;2024-02-21T04:18:54;19.75;;;9.48;;
63534;SDS011;55128;50.230;18.944;2024-02-21T04:23:54;22.77;;;10.98;;
63534;SDS011;55128;50.230;18.944;2024-02-21T04:28:55;19.63;;;10.68;;
63534;SDS011;55128;50.230;18.944;2024-02-21T04:33:56;21.88;;;10.48;;
63534;SDS011;55128;50.230;18.944;2024-02-21T04:38:56;17.98;;;9.18;;
63534;SDS011;55128;50.230;18.944;2024-02-21T04:43:57;21.77;;;10.98;;
63534;SDS011;55128;50.230;18.944;2024-02-21T04:48:57;31.23;;;12.18;;
63534;SDS011;55128;50.230;18.944;2024-02-21T04:53:57;34.33;;;13.85;;
63534;SDS011;55128;50.230;18.944;2024-02-21T04:58:58;21.77;;;11.05;;
63534;SDS011;55128;50.230;18.944;2024-02-21T05:03:58;23.83;;;11.07;;
63534;SDS011;55128;50.230;18.944;2024-02-21T05:08:58;21.52;;;9.57;;
63534;SDS011;55128;50.230;18.944;2024-02-21T05:13:59;18.63;;;9.77;;
63534;SDS011;55128;50.230;18.944;2024-02-21T05:18:59;12.77;;;8.48;;
63534;SDS011;55128;50.230;18.944;2024-02-21T05:24:00;18.23;;;9.98;;
63534;SDS011;55128;50.230;18.944;2024-02-21T05:29:00;15.25;;;9.27;;
63534;SDS011;55128;50.230;18.944;2024-02-21T05:34:01;16.98;;;10.52;;
63534;SDS011;55128;50.230;18.944;2024-02-21T05:39:04;17.48;;;9.05;;
63534;SDS011;55128;50.230;18.944;2024-02-21T05:44:04;18.33;;;9.88;;
63534;SDS011;55128;50.230;18.944;2024-02-21T05:49:05;15.88;;;9.65;;
63534;SDS011;55128;50.230;18.944;2024-02-21T05:54:06;18.60;;;10.00;;
63534;SDS011;55128;50.230;18.944;2024-02-21T05:59:07;16.02;;;9.20;;
63534;SDS011;55128;50.230;18.944;2024-02-21T06:04:07;19.60;;;10.88;;
63534;SDS011;55128;50.230;18.944;2024-02-21T06:09:08;15.65;;;10.35;;
63534;SDS011;55128;50.230;18.944;2024-02-21T06:14:08;17.35;;;11.48;;
63534;SDS011;55128;50.230;18.944;2024-02-21T06:19:08;21.98;;;13.90;;
63534;SDS011;55128;50.230;18.944;2024-02-21T06:24:09;20.77;;;12.77;;
63534;SDS011;55128;50.230;18.944;2024-02-21T06:29:10;18.25;;;11.10;;
63534;SDS011;55128;50.230;18.944;2024-02-21T06:34:11;20.13;;;11.15;;
63534;SDS011;55128;50.230;18.944;2024-02-21T06:39:11;22.05;;;11.30;;
63534;SDS011;55128;50.230;18.944;2024-02-21T06:44:12;20.45;;;10.45;;
63534;SDS011;55128;50.230;18.944;2024-02-21T06:49:12;17.05;;;9.95;;
63534;SDS011;55128;50.230;18.944;2024-02-21T06:54:16;17.77;;;10.40;;
63534;SDS011;55128;50.230;18.944;2024-02-21T06:59:16;21.10;;;9.85;;
63534;SDS011;55128;50.230;18.944;2024-02-21T07:04:16;20.50;;;9.13;;
63534;SDS011;55128;50.230;18.944;2024-02-21T07:09:17;20.17;;;10.05;;
63534;SDS011;55128;50.230;18.944;2024-02-21T07:14:18;20.00;;;9.68;;
63534;SDS011;55128;50.230;18.944;2024-02-21T07:19:18;22.08;;;11.75;;
63534;SDS011;55128;50.230;18.944;2024-02-21T07:24:19;18.92;;;10.75;;
63534;SDS011;55128;50.230;18.944;2024-02-21T07:29:19;15.20;;;8.88;;
63534;SDS011;55128;50.230;18.944;2024-02-21T07:34:20;18.83;;;8.88;;
63534;SDS011;55128;50.230;18.944;2024-02-21T07:39:21;16.42;;;9.07;;
63534;SDS011;55128;50.230;18.944;2024-02-21T07:44:21;20.58;;;9.07;;
63534;SDS011;55128;50.230;18.944;2024-02-21T07:49:22;16.20;;;9.15;;
63534;SDS011;55128;50.230;18.944;2024-02-21T07:54:22;22.60;;;10.45;;
63534;SDS011;55128;50.230;18.944;2024-02-21T07:59:22;22.70;;;10.10;;
63534;SDS011;55128;50.230;18.944;2024-02-21T08:04:23;17.98;;;9.38;;
63534;SDS011;55128;50.230;18.944;2024-02-21T08:09:23;18.60;;;8.98;;
63534;SDS011;55128;50.230;18.944;2024-02-21T08:14:24;15.43;;;8.85;;
63534;SDS011;55128;50.230;18.944;2024-02-21T08:19:24;15.95;;;9.63;;
63534;SDS011;55128;50.230;18.944;2024-02-21T08:24:25;19.27;;;9.82;;
63534;SDS011;55128;50.230;18.944;2024-02-21T08:29:25;14.77;;;9.45;;
63534;SDS011;55128;50.230;18.944;2024-02-21T08:34:26;16.40;;;8.07;;
63534;SDS011;55128;50.230;18.944;2024-02-21T08:39:26;14.45;;;8.02;;
63534;SDS011;55128;50.230;18.944;2024-02-21T08:44:28;17.05;;;8.00;;
63534;SDS011;55128;50.230;18.944;2024-02-21T08:49:29;17.35;;;8.05;;
63534;SDS011;55128;50.230;18.944;2024-02-21T08:54:29;18.27;;;8.63;;
63534;SDS011;55128;50.230;18.944;2024-02-21T08:59:29;14.00;;;7.38;;
63534;SDS011;55128;50.230;18.944;2024-02-21T09:04:30;17.98;;;8.80;;
63534;SDS011;55128;50.230;18.944;2024-02-21T09:09:31;14.65;;;8.02;;
63534;SDS011;55128;50.230;18.944;2024-02-21T09:14:33;15.95;;;8.02;;
63534;SDS011;55128;50.230;18.944;2024-02-21T09:19:35;14.38;;;7.63;;
63534;SDS011;55128;50.230;18.944;2024-02-21T09:24:35;13.90;;;6.80;;
63534;SDS011;55128;50.230;18.944;2024-02-21T09:29:36;12.73;;;6.68;;
63534;SDS011;55128;50.230;18.944;2024-02-21T09:34:36;14.55;;;7.70;;
63534;SDS011;55128;50.230;18.944;2024-02-21T09:39:36;11.40;;;5.95;;
63534;SDS011;55128;50.230;18.944;2024-02-21T09:44:37;13.38;;;5.95;;
63534;SDS011;55128;50.230;18.944;2024-02-21T09:49:43;12.25;;;5.90;;
63534;SDS011;55128;50.230;18.944;2024-02-21T09:54:44;14.13;;;5.82;;
63534;SDS011;55128;50.230;18.944;2024-02-21T09:59:45;13.40;;;6.15;;
63534;SDS011;55128;50.230;18.944;2024-02-21T10:04:46;10.52;;;5.35;;
63534;SDS011;55128;50.230;18.944;2024-02-21T10:09:46;14.02;;;6.13;;
63534;SDS011;55128;50.230;18.944;2024-02-21T10:14:48;12.55;;;5.60;;
63534;SDS011;55128;50.230;18.944;2024-02-21T10:19:48;10.80;;;5.53;;
63534;SDS011;55128;50.230;18.944;2024-02-21T10:24:50;11.55;;;5.13;;
63534;SDS011;55128;50.230;18.944;2024-02-21T10:29:51;10.88;;;4.82;;
63534;SDS011;55128;50.230;18.944;2024-02-21T10:35:00;13.65;;;5.18;;
63534;SDS011;55128;50.230;18.944;2024-02-21T10:40:03;10.90;;;4.63;;
63534;SDS011;55128;50.230;18.944;2024-02-21T10:45:05;11.65;;;4.97;;
63534;SDS011;55128;50.230;18.944;2024-02-21T10:50:07;12.25;;;4.82;;
63534;SDS011;55128;50.230;18.944;2024-02-21T10:55:14;8.20;;;4.05;;
63534;SDS011;55128;50.230;18.944;2024-02-21T11:00:19;8.07;;;3.88;;
63534;SDS011;55128;50.230;18.944;2024-02-21T11:05:21;8.95;;;4.13;;
63534;SDS011;55128;50.230;18.944;2024-02-21T11:10:24;11.55;;;4.28;;
63534;SDS011;55128;50.230;18.944;2024-02-21T11:15:26;6.53;;;4.05;;
63534;SDS011;55128;50.230;18.944;2024-02-21T11:20:34;11.10;;;4.30;;
63534;SDS011;55128;50.230;18.944;2024-02-21T11:25:35;11.02;;;4.50;;
63534;SDS011;55128;50.230;18.944;2024-02-21T11:30:36;9.55;;;4.88;;
63534;SDS011;55128;50.230;18.944;2024-02-21T11:35:38;10.10;;;3.42;;
63534;SDS011;55128;50.230;18.944;2024-02-21T11:40:39;8.45;;;4.30;;
63534;SDS011;55128;50.230;18.944;2024-02-21T11:45:42;11.13;;;4.50;;
63534;SDS011;55128;50.230;18.944;2024-02-21T11:50:42;10.57;;;4.20;;
63534;SDS011;55128;50.230;18.944;2024-02-21T11:55:53;9.25;;;4.63;;
63534;SDS011;55128;50.230;18.944;2024-02-21T12:00:55;9.35;;;4.50;;
63534;SDS011;55128;50.230;18.944;2024-02-21T12:05:56;12.85;;;5.45;;
63534;SDS011;55128;50.230;18.944;2024-02-21T12:10:58;12.57;;;5.18;;
63534;SDS011;55128;50.230;18.944;2024-02-21T12:16:05;13.45;;;5.43;;
63534;SDS011;55128;50.230;18.944;2024-02-21T12:21:06;9.32;;;4.40;;
63534;SDS011;55128;50.230;18.944;2024-02-21T12:26:06;11.10;;;4.43;;
63534;SDS011;55128;50.230;18.944;2024-02-21T12:31:10;11.13;;;5.15;;
63534;SDS011;55128;50.230;18.944;2024-02-21T12:36:11;10.07;;;5.50;;
63534;SDS011;55128;50.230;18.944;2024-02-21T12:41:12;8.98;;;4.15;;
63534;SDS011;55128;50.230;18.944;2024-02-21T12:46:12;10.07;;;3.93;;
63534;SDS011;55128;50.230;18.944;2024-02-21T12:51:13;10.73;;;3.97;;
63534;SDS011;55128;50.230;18.944;2024-02-21T12:56:13;11.15;;;4.53;;
63534;SDS011;55128;50.230;18.944;2024-02-21T13:01:39;11.13;;;4.40;;
63534;SDS011;55128;50.230;18.944;2024-02-21T13:06:40;8.40;;;4.30;;
63534;SDS011;55128;50.230;18.944;2024-02-21T13:11:40;8.35;;;4.10;;
63534;SDS011;55128;50.230;18.944;2024-02-21T13:16:43;10.18;;;4.30;;
63534;SDS011;55128;50.230;18.944;2024-02-21T13:21:43;9.60;;;4.13;;
63534;SDS011;55128;50.230;18.944;2024-02-21T13:26:44;15.43;;;6.57;;
63534;SDS011;55128;50.230;18.944;2024-02-21T13:31:44;12.95;;;5.70;;
63534;SDS011;55128;50.230;18.944;2024-02-21T13:36:45;13.32;;;5.68;;
63534;SDS011;55128;50.230;18.944;2024-02-21T13:41:46;12.93;;;5.95;;
63534;SDS011;55128;50.230;18.944;2024-02-21T13:46:47;13.63;;;6.40;;
63534;SDS011;55128;50.230;18.944;2024-02-21T13:51:47;11.15;;;5.90;;
63534;SDS011;55128;50.230;18.944;2024-02-21T13:56:48;17.70;;;7.60;;
63534;SDS011;55128;50.230;18.944;2024-02-21T14:01:48;15.45;;;6.63;;
63534;SDS011;55128;50.230;18.944;2024-02-21T14:06:48;18.33;;;7.45;;
63534;SDS011;55128;50.230;18.944;2024-02-21T14:11:49;13.40;;;6.57;;
63534;SDS011;55128;50.230;18.944;2024-02-21T14:16:49;15.00;;;6.20;;
63534;SDS011;55128;50.230;18.944;2024-02-21T14:21:50;10.73;;;5.40;;
63534;SDS011;55128;50.230;18.944;2024-02-21T14:26:50;15.23;;;5.88;;
63534;SDS011;55128;50.230;18.944;2024-02-21T14:31:51;10.90;;;5.33;;
63534;SDS011;55128;50.230;18.944;2024-02-21T14:36:53;14.77;;;5.78;;
63534;SDS011;55128;50.230;18.944;2024-02-21T14:41:54;13.63;;;5.30;;
63534;SDS011;55128;50.230;18.944;2024-02-21T14:46:54;18.25;;;6.43;;
63534;SDS011;55128;50.230;18.944;2024-02-21T14:51:55;13.25;;;5.90;;
63534;SDS011;55128;50.230;18.944;2024-02-21T14:56:55;12.70;;;5.38;;
63534;SDS011;55128;50.230;18.944;2024-02-21T15:01:56;17.17;;;6.72;;
63534;SDS011;55128;50.230;18.944;2024-02-21T15:06:56;14.57;;;5.93;;
63534;SDS011;55128;50.230;18.944;2024-02-21T15:11:56;15.32;;;6.35;;
63534;SDS011;55128;50.230;18.944;2024-02-21T15:16:57;16.17;;;7.50;;
63534;SDS011;55128;50.230;18.944;2024-02-21T15:21:57;15.90;;;6.50;;
63534;SDS011;55128;50.230;18.944;2024-02-21T15:26:58;15.55;;;6.47;;
63534;SDS011;55128;50.230;18.944;2024-02-21T15:31:59;14.23;;;5.97;;
63534;SDS011;55128;50.230;18.944;2024-02-21T15:36:59;13.40;;;6.43;;
63534;SDS011;55128;50.230;18.944;2024-02-21T15:42:00;13.48;;;5.50;;
63534;SDS011;55128;50.230;18.944;2024-02-21T15:47:00;16.95;;;5.88;;
63534;SDS011;55128;50.230;18.944;2024-02-21T15:52:01;11.90;;;6.10;;
63534;SDS011;55128;50.230;18.944;2024-02-21T15:57:01;14.90;;;6.57;;
63534;SDS011;55128;50.230;18.944;2024-02-21T16:07:06;15.00;;;7.22;;
63534;SDS011;55128;50.230;18.944;2024-02-21T16:12:06;13.07;;;6.50;;
63534;SDS011;55128;50.230;18.944;2024-02-21T16:17:08;16.88;;;6.63;;
63534;SDS011;55128;50.230;18.944;2024-02-21T16:22:10;14.80;;;6.10;;
63534;SDS011;55128;50.230;18.944;2024-02-21T16:27:10;14.48;;;6.38;;
63534;SDS011;55128;50.230;18.944;2024-02-21T16:32:10;14.90;;;7.20;;
63534;SDS011;55128;50.230;18.944;2024-02-21T16:37:11;14.52;;;7.53;;
63534;SDS011;55128;50.230;18.944;2024-02-21T16:42:13;18.45;;;8.75;;
63534;SDS011;55128;50.230;18.944;2024-02-21T16:47:14;18.42;;;10.32;;
63534;SDS011;55128;50.230;18.944;2024-02-21T16:52:15;17.70;;;9.18;;
63534;SDS011;55128;50.230;18.944;2024-02-21T16:57:15;19.55;;;9.30;;
63534;SDS011;55128;50.230;18.944;2024-02-21T17:02:15;14.63;;;7.00;;
63534;SDS011;55128;50.230;18.944;2024-02-21T17:07:16;19.48;;;9.25;;
63534;SDS011;55128;50.230;18.944;2024-02-21T17:12:16;16.67;;;7.07;;
63534;SDS011;55128;50.230;18.944;2024-02-21T17:17:17;20.17;;;10.10;;
63534;SDS011;55128;50.230;18.944;2024-02-21T17:22:19;17.45;;;7.63;;
63534;SDS011;55128;50.230;18.944;2024-02-21T17:27:20;17.05;;;8.77;;
63534;SDS011;55128;50.230;18.944;2024-02-21T17:32:20;16.73;;;7.97;;
63534;SDS011;55128;50.230;18.944;2024-02-21T17:37:23;16.77;;;7.63;;
63534;SDS011;55128;50.230;18.944;2024-02-21T17:42:23;17.08;;;7.60;;
63534;SDS011;55128;50.230;18.944;2024-02-21T17:47:24;14.77;;;7.38;;
63534;SDS011;55128;50.230;18.944;2024-02-21T17:52:25;15.50;;;8.38;;
63534;SDS011;55128;50.230;18.944;2024-02-21T17:57:29;15.83;;;8.03;;
63534;SDS011;55128;50.230;18.944;2024-02-21T18:02:29;20.63;;;9.27;;
63534;SDS011;55128;50.230;18.944;2024-02-21T18:07:31;20.30;;;10.30;;
63534;SDS011;55128;50.230;18.944;2024-02-21T18:12:32;19.98;;;10.00;;
63534;SDS011;55128;50.230;18.944;2024-02-21T18:17:33;17.50;;;9.13;;
63534;SDS011;55128;50.230;18.944;2024-02-21T18:22:35;21.67;;;9.88;;
63534;SDS011;55128;50.230;18.944;2024-02-21T18:27:35;21.15;;;9.80;;
63534;SDS011;55128;50.230;18.944;2024-02-21T18:32:36;20.80;;;10.63;;
63534;SDS011;55128;50.230;18.944;2024-02-21T18:37:36;19.85;;;10.20;;
63534;SDS011;55128;50.230;18.944;2024-02-21T18:42:37;16.17;;;10.17;;
63534;SDS011;55128;50.230;18.944;2024-02-21T18:47:41;17.42;;;10.38;;
63534;SDS011;55128;50.230;18.944;2024-02-21T18:52:41;19.42;;;10.13;;
63534;SDS011;55128;50.230;18.944;2024-02-21T18:57:43;20.65;;;10.85;;
63534;SDS011;55128;50.230;18.944;2024-02-21T19:02:44;19.50;;;10.35;;
63534;SDS011;55128;50.230;18.944;2024-02-21T19:07:47;20.55;;;10.70;;
63534;SDS011;55128;50.230;18.944;2024-02-21T19:12:48;17.83;;;10.35;;
63534;SDS011;55128;50.230;18.944;2024-02-21T19:17:48;23.25;;;10.90;;
63534;SDS011;55128;50.230;18.944;2024-02-21T19:22:49;21.63;;;9.90;;
63534;SDS011;55128;50.230;18.944;2024-02-21T19:27:49;17.55;;;9.85;;
63534;SDS011;55128;50.230;18.944;2024-02-21T19:32:49;22.55;;;10.27;;
63534;SDS011;55128;50.230;18.944;2024-02-21T19:37:50;22.00;;;10.20;;
63534;SDS011;55128;50.230;18.944;2024-02-21T19:42:50;19.95;;;10.27;;
63534;SDS011;55128;50.230;18.944;2024-02-21T19:47:51;22.07;;;11.13;;
63534;SDS011;55128;50.230;18.944;2024-02-21T19:52:51;21.48;;;10.30;;
63534;SDS011;55128;50.230;18.944;2024-02-21T19:57:55;22.77;;;11.30;;
63534;SDS011;55128;50.230;18.944;2024-02-21T20:02:56;21.98;;;11.52;;
63534;SDS011;55128;50.230;18.944;2024-02-21T20:07:56;22.73;;;10.98;;
63534;SDS011;55128;50.230;18.944;2024-02-21T20:12:57;21.15;;;11.30;;
63534;SDS011;55128;50.230;18.944;2024-02-21T20:17:57;19.87;;;11.10;;
63534;SDS011;55128;50.230;18.944;2024-02-21T20:22:59;21.60;;;11.18;;
63534;SDS011;55128;50.230;18.944;2024-02-21T20:27:59;17.63;;;9.90;;
63534;SDS011;55128;50.230;18.944;2024-02-21T20:33:00;22.13;;;10.20;;
63534;SDS011;55128;50.230;18.944;2024-02-21T20:38:01;18.42;;;9.63;;
63534;SDS011;55128;50.230;18.944;2024-02-21T20:43:05;21.67;;;10.57;;
63534;SDS011;55128;50.230;18.944;2024-02-21T20:48:07;15.35;;;9.48;;
63534;SDS011;55128;50.230;18.944;2024-02-21T20:53:07;22.42;;;9.90;;
63534;SDS011;55128;50.230;18.944;2024-02-21T20:58:08;17.35;;;9.70;;
63534;SDS011;55128;50.230;18.944;2024-02-21T21:03:09;18.77;;;9.32;;
63534;SDS011;55128;50.230;18.944;2024-02-21T21:08:10;18.83;;;9.07;;
63534;SDS011;55128;50.230;18.944;2024-02-21T21:13:10;18.77;;;10.43;;
63534;SDS011;55128;50.230;18.944;2024-02-21T21:18:10;20.13;;;10.95;;
63534;SDS011;55128;50.230;18.944;2024-02-21T21:23:11;18.95;;;10.05;;
63534;SDS011;55128;50.230;18.944;2024-02-21T21:28:11;26.38;;;11.73;;
63534;SDS011;55128;50.230;18.944;2024-02-21T21:33:12;29.15;;;12.30;;
63534;SDS011;55128;50.230;18.944;2024-02-21T21:38:12;21.15;;;10.25;;
63534;SDS011;55128;50.230;18.944;2024-02-21T21:43:13;19.08;;;10.13;;
63534;SDS011;55128;50.230;18.944;2024-02-21T21:48:13;22.33;;;11.02;;
63534;SDS011;55128;50.230;18.944;2024-02-21T21:53:14;17.65;;;8.30;;
63534;SDS011;55128;50.230;18.944;2024-02-21T21:58:14;17.33;;;8.73;;
63534;SDS011;55128;50.230;18.944;2024-02-21T22:03:15;14.35;;;7.82;;
63534;SDS011;55128;50.230;18.944;2024-02-21T22:08:16;16.13;;;8.40;;
63534;SDS011;55128;50.230;18.944;2024-02-21T22:13:17;15.02;;;8.57;;
63534;SDS011;55128;50.230;18.944;2024-02-21T22:18:17;14.55;;;7.70;;
63534;SDS011;55128;50.230;18.944;2024-02-21T22:23:18;13.23;;;7.07;;
63534;SDS011;55128;50.230;18.944;2024-02-21T22:28:20;13.88;;;7.57;;
63534;SDS011;55128;50.230;18.944;2024-02-21T22:33:22;14.45;;;7.55;;
63534;SDS011;55128;50.230;18.944;2024-02-21T22:38:22;13.13;;;7.13;;
63534;SDS011;55128;50.230;18.944;2024-02-21T22:43:23;11.80;;;6.85;;
63534;SDS011;55128;50.230;18.944;2024-02-21T22:48:23;13.53;;;6.63;;
63534;SDS011;55128;50.230;18.944;2024-02-21T22:53:24;14.55;;;7.32;;
63534;SDS011;55128;50.230;18.944;2024-02-21T22:58:24;15.88;;;7.28;;
63534;SDS011;55128;50.230;18.944;2024-02-21T23:03:25;14.82;;;8.00;;
63534;SDS011;55128;50.230;18.944;2024-02-21T23:08:25;14.05;;;7.88;;
63534;SDS011;55128;50.230;18.944;2024-02-21T23:13:26;16.90;;;8.88;;
63534;SDS011;55128;50.230;18.944;2024-02-21T23:18:27;15.63;;;8.65;;
63534;SDS011;55128;50.230;18.944;2024-02-21T23:23:27;27.65;;;12.82;;
63534;SDS011;55128;50.230;18.944;2024-02-21T23:28:28;19.48;;;10.55;;
63534;SDS011;55128;50.230;18.944;2024-02-21T23:33:28;20.73;;;10.02;;
63534;SDS011;55128;50.230;18.944;2024-02-21T23:38:34;18.00;;;9.23;;
63534;SDS011;55128;50.230;18.944;2024-02-21T23:43:40;13.57;;;8.52;;
63534;SDS011;55128;50.230;18.944;2024-02-21T23:48:41;16.95;;;9.00;;
63534;SDS011;55128;50.230;18.944;2024-02-21T23:53:43;17.38;;;8.73;;
63534;SDS011;55128;50.230;18.944;2024-02-21T23:58:43;140.37;;;49.20;;
